createdAt,value
2023-04-21T00:01:30.116Z,97360.53
2023-04-21T00:03:57.368Z,97358.88
2023-04-21T00:06:24.539Z,97355.88
2023-04-21T00:08:51.581Z,97360.81
2023-04-21T00:11:19.115Z,97358.44
2023-04-21T00:14:18.008Z,97353.34
2023-04-21T00:16:45.236Z,97354.47
2023-04-21T00:19:14.351Z,97347.88
2023-04-21T00:21:41.509Z,97347.69
2023-04-21T00:24:08.749Z,97347.06
2023-04-21T00:26:35.822Z,97348.75
2023-04-21T00:29:03.342Z,97355.72
2023-04-21T00:31:31.823Z,97353.78
2023-04-21T00:33:58.896Z,97354.13
2023-04-21T00:36:28.315Z,97349.31
2023-04-21T00:38:55.633Z,97341.50
2023-04-21T00:41:23.788Z,97334.13
2023-04-21T00:44:07.042Z,97343.22
2023-04-21T00:47:06.161Z,97345.84
2023-04-21T00:49:33.510Z,97337.16
2023-04-21T00:52:00.926Z,97334.56
2023-04-21T00:54:28.524Z,97337.16
2023-04-21T01:00:46.549Z,97334.25
2023-04-21T01:03:13.897Z,97330.22
2023-04-21T01:05:42.659Z,97324.19
2023-04-21T01:08:12.156Z,97331.63
2023-04-21T01:10:39.261Z,97333.84
2023-04-21T01:13:06.480Z,97325.00
2023-04-21T01:15:34.007Z,97327.13
2023-04-21T01:18:01.351Z,97322.41
2023-04-21T01:20:29.873Z,97319.88
2023-04-21T01:22:58.215Z,97313.06
2023-04-21T01:25:28.475Z,97309.03
2023-04-21T01:27:56.402Z,97310.63
2023-04-21T01:30:23.508Z,97297.84
2023-04-21T01:32:52.064Z,97301.44
2023-04-21T01:35:19.259Z,97308.91
2023-04-21T01:37:46.499Z,97297.69
2023-04-21T01:40:14.131Z,97296.56
2023-04-21T01:42:43.448Z,97297.31
2023-04-21T01:45:11.325Z,97295.78
2023-04-21T01:47:38.715Z,97298.63
2023-04-21T01:50:08.044Z,97301.56
2023-04-21T01:52:35.187Z,97297.31
2023-04-21T01:55:02.523Z,97301.03
2023-04-21T01:57:29.722Z,97299.47
2023-04-21T01:59:57.712Z,97291.19
2023-04-21T02:02:25.194Z,97297.13
2023-04-21T02:04:52.419Z,97293.16
2023-04-21T02:07:19.549Z,97290.97
2023-04-21T02:09:46.652Z,97289.09
2023-04-21T02:12:15.254Z,97286.34
2023-04-21T02:14:42.827Z,97287.47
2023-04-21T02:17:09.934Z,97281.56
2023-04-21T02:19:37.892Z,97282.66
2023-04-21T02:22:07.001Z,97287.50
2023-04-21T02:24:36.200Z,97287.50
2023-04-21T02:27:03.530Z,97283.84
2023-04-21T02:29:30.733Z,97292.25
2023-04-21T02:32:07.775Z,97289.63
2023-04-21T02:34:45.317Z,97291.59
2023-04-21T02:37:12.452Z,97293.91
2023-04-21T02:39:39.566Z,97291.28
2023-04-21T02:42:06.715Z,97280.41
2023-04-21T02:44:49.220Z,97275.84
2023-04-21T02:47:17.032Z,97276.94
2023-04-21T02:49:44.655Z,97278.59
2023-04-21T02:52:12.831Z,97275.97
2023-04-21T02:54:39.881Z,97275.97
2023-04-21T02:57:07.027Z,97266.88
2023-04-21T02:59:34.204Z,97271.38
2023-04-21T03:02:01.359Z,97264.91
2023-04-21T03:04:28.806Z,97261.84
2023-04-21T03:06:58.171Z,97275.59
2023-04-21T03:09:25.596Z,97269.00
2023-04-21T03:11:53.497Z,97267.94
2023-04-21T03:14:20.716Z,97266.50
2023-04-21T03:16:47.857Z,97269.38
2023-04-21T03:19:14.947Z,97273.53
2023-04-21T03:21:41.992Z,97277.38
2023-04-21T03:24:09.523Z,97276.69
2023-04-21T03:26:38.836Z,97271.75
2023-04-21T03:29:05.952Z,97279.69
2023-04-21T03:31:33.197Z,97273.22
2023-04-21T03:34:00.250Z,97271.28
2023-04-21T03:36:27.735Z,97259.47
2023-04-21T03:38:55.529Z,97267.72
2023-04-21T03:41:23.509Z,97261.34
2023-04-21T03:43:53.585Z,97267.63
2023-04-21T03:46:22.179Z,97267.75
2023-04-21T03:48:49.461Z,97270.91
2023-04-21T03:51:16.683Z,97274.16
2023-04-21T03:53:44.009Z,97278.81
2023-04-21T03:56:11.209Z,97274.25
2023-04-21T03:58:38.427Z,97275.72
2023-04-21T04:01:07.123Z,97287.28
2023-04-21T04:03:34.976Z,97290.66
2023-04-21T04:06:04.305Z,97283.25
2023-04-21T04:08:31.579Z,97292.75
2023-04-21T04:10:58.765Z,97299.75
2023-04-21T04:13:26.843Z,97290.31
2023-04-21T04:15:54.157Z,97297.72
2023-04-21T04:18:21.812Z,97303.19
2023-04-21T04:20:48.901Z,97294.59
2023-04-21T04:23:16.251Z,97303.59
2023-04-21T04:25:43.527Z,97318.84
2023-04-21T04:28:10.729Z,97307.25
2023-04-21T04:30:37.825Z,97316.47
2023-04-21T04:33:05.752Z,97316.31
2023-04-21T04:35:32.930Z,97312.94
2023-04-21T04:37:59.972Z,97318.72
2023-04-21T04:40:27.216Z,97312.59
2023-04-21T04:42:55.111Z,97315.13
2023-04-21T04:45:22.452Z,97315.50
2023-04-21T04:47:52.774Z,97321.53
2023-04-21T04:50:20.554Z,97317.47
2023-04-21T04:52:49.199Z,97314.41
2023-04-21T04:55:16.343Z,97326.91
2023-04-21T04:57:43.456Z,97333.94
2023-04-21T05:00:11.893Z,97324.28
2023-04-21T05:02:39.281Z,97317.63
2023-04-21T05:05:07.837Z,97325.69
2023-04-21T05:07:35.440Z,97315.84
2023-04-21T05:10:04.550Z,97317.94
2023-04-21T05:12:34.994Z,97320.31
2023-04-21T05:15:02.385Z,97318.81
2023-04-21T05:17:31.380Z,97322.75
2023-04-21T05:19:58.682Z,97317.38
2023-04-21T05:22:26.340Z,97316.72
2023-04-21T05:24:53.581Z,97318.56
2023-04-21T05:27:20.861Z,97315.88
2023-04-21T05:29:48.027Z,97305.19
2023-04-21T05:32:15.585Z,97310.47
2023-04-21T05:34:42.656Z,97310.13
2023-04-21T05:37:12.284Z,97310.47
2023-04-21T05:39:39.592Z,97303.25
2023-04-21T05:42:06.895Z,97299.63
2023-04-21T05:44:34.202Z,97298.97
2023-04-21T05:47:01.277Z,97307.75
2023-04-21T05:49:28.522Z,97307.16
2023-04-21T05:51:55.566Z,97309.41
2023-04-21T05:54:22.751Z,97315.81
2023-04-21T05:56:49.824Z,97307.94
2023-04-21T05:59:17.167Z,97310.00
2023-04-21T06:01:44.771Z,97314.97
2023-04-21T06:04:12.128Z,97318.44
2023-04-21T06:06:39.696Z,97321.56
2023-04-21T06:09:08.068Z,97321.06
2023-04-21T06:11:35.210Z,97343.88
2023-04-21T06:14:02.287Z,97351.72
2023-04-21T06:16:32.375Z,97360.25
2023-04-21T06:18:59.868Z,97361.28
2023-04-21T06:21:27.089Z,97360.91
2023-04-21T06:23:54.112Z,97353.22
2023-04-21T06:26:21.267Z,97354.50
2023-04-21T06:28:48.280Z,97356.03
2023-04-21T06:31:15.789Z,97358.25
2023-04-21T06:33:43.072Z,97361.81
2023-04-21T06:36:10.127Z,97365.25
2023-04-21T06:38:37.174Z,97360.72
2023-04-21T06:41:04.939Z,97367.47
2023-04-21T06:43:32.018Z,97372.13
2023-04-21T06:45:59.097Z,97367.97
2023-04-21T06:48:26.577Z,97370.59
2023-04-21T06:50:53.926Z,97373.34
2023-04-21T06:54:30.277Z,97374.16
2023-04-21T06:56:57.394Z,97375.25
2023-04-21T06:59:24.660Z,97374.47
2023-04-21T07:01:55.055Z,97378.72
2023-04-21T07:04:22.286Z,97376.28
2023-04-21T07:06:49.429Z,97375.31
2023-04-21T07:09:16.555Z,97373.91
2023-04-21T07:11:43.599Z,97383.25
2023-04-21T07:14:11.174Z,97383.81
2023-04-21T07:16:38.350Z,97371.81
2023-04-21T07:19:05.516Z,97373.72
2023-04-21T07:21:36.318Z,97371.13
2023-04-21T07:24:04.015Z,97368.03
2023-04-21T07:26:31.122Z,97377.75
2023-04-21T07:29:00.727Z,97369.06
2023-04-21T07:31:27.828Z,97369.00
2023-04-21T07:33:54.940Z,97353.59
2023-04-21T07:36:22.039Z,97352.91
2023-04-21T07:38:49.039Z,97354.50
2023-04-21T07:41:16.088Z,97351.25
2023-04-21T07:43:43.104Z,97357.44
2023-04-21T07:46:10.214Z,97335.16
2023-04-21T07:48:37.272Z,97350.31
2023-04-21T07:51:04.310Z,97355.22
2023-04-21T07:53:31.573Z,97347.34
2023-04-21T07:55:59.137Z,97350.25
2023-04-21T07:58:26.265Z,97349.53
2023-04-21T08:00:53.426Z,97351.28
2023-04-21T08:03:23.819Z,97355.91
2023-04-21T08:05:51.630Z,97349.03
2023-04-21T08:08:20.600Z,97353.03
2023-04-21T08:10:47.989Z,97357.19
2023-04-21T08:13:15.203Z,97357.38
2023-04-21T08:15:42.422Z,97362.00
2023-04-21T08:18:09.782Z,97362.13
2023-04-21T08:20:36.996Z,97361.88
2023-04-21T08:23:04.196Z,97357.50
2023-04-21T08:25:31.473Z,97352.06
2023-04-21T08:27:58.621Z,97355.78
2023-04-21T08:30:27.484Z,97359.44
2023-04-21T08:32:54.545Z,97360.38
2023-04-21T08:35:21.692Z,97366.47
2023-04-21T08:37:49.085Z,97358.69
2023-04-21T08:40:18.316Z,97365.16
2023-04-21T08:42:46.068Z,97362.88
2023-04-21T08:45:13.128Z,97357.38
2023-04-21T08:47:42.072Z,97368.06
2023-04-21T08:50:13.775Z,97358.72
2023-04-21T08:52:41.063Z,97356.09
2023-04-21T08:55:10.235Z,97355.81
2023-04-21T08:57:37.393Z,97347.38
2023-04-21T09:00:07.883Z,97352.84
2023-04-21T09:03:04.328Z,97360.97
2023-04-21T09:05:36.391Z,97367.03
2023-04-21T09:08:16.792Z,97366.06
2023-04-21T09:10:49.539Z,97355.06
2023-04-21T09:13:18.385Z,97362.28
2023-04-21T09:15:47.518Z,97367.59
2023-04-21T09:18:16.652Z,97360.78
2023-04-21T09:20:45.532Z,97353.09
2023-04-21T09:23:13.256Z,97364.50
2023-04-21T09:25:45.628Z,97360.22
2023-04-21T09:28:14.986Z,97352.34
2023-04-21T09:30:43.136Z,97367.63
2023-04-21T09:33:28.029Z,97366.59
2023-04-21T09:35:56.402Z,97349.47
2023-04-21T09:38:26.301Z,97359.63
2023-04-21T09:41:00.252Z,97361.09
2023-04-21T09:43:27.358Z,97358.59
2023-04-21T10:17:51.877Z,97358.84
2023-04-21T10:20:18.920Z,97362.00
2023-04-21T10:22:46.142Z,97355.75
2023-04-21T10:25:14.469Z,97361.81
2023-04-21T10:27:43.229Z,97359.19
2023-04-21T10:30:20.644Z,97350.78
2023-04-21T10:32:47.866Z,97346.50
2023-04-21T10:35:21.708Z,97346.81
2023-04-21T10:37:51.696Z,97340.53
2023-04-21T10:40:43.237Z,97350.19
2023-04-21T10:43:43.491Z,97356.97
2023-04-21T10:46:34.081Z,97351.28
2023-04-21T10:49:21.608Z,97348.31
2023-04-21T10:52:02.655Z,97347.31
2023-04-21T10:55:06.741Z,97358.25
2023-04-21T10:57:35.662Z,97358.25
2023-04-21T11:00:07.074Z,97350.91
2023-04-21T11:02:38.658Z,97356.00
2023-04-21T11:05:09.600Z,97355.72
2023-04-21T11:07:37.151Z,97368.22
2023-04-21T11:10:08.254Z,97350.13
2023-04-21T11:12:39.112Z,97346.78
2023-04-21T11:15:09.069Z,97345.94
2023-04-21T11:17:39.398Z,97349.78
2023-04-21T11:20:07.325Z,97343.09
2023-04-21T11:22:36.437Z,97344.81
2023-04-21T11:25:04.661Z,97347.34
2023-04-21T11:27:31.870Z,97337.84
2023-04-21T11:29:59.054Z,97339.31
2023-04-21T11:32:26.215Z,97338.53
2023-04-21T11:34:54.506Z,97329.13
2023-04-21T11:37:30.071Z,97347.41
2023-04-21T11:40:01.424Z,97337.50
2023-04-21T11:42:29.167Z,97331.13
2023-04-21T11:44:57.374Z,97329.69
2023-04-21T11:47:26.831Z,97315.94
2023-04-21T11:49:59.075Z,97328.09
2023-04-21T11:52:34.535Z,97321.69
2023-04-21T11:55:11.898Z,97319.69
2023-04-21T11:57:40.766Z,97309.66
2023-04-21T12:00:15.455Z,97308.19
2023-04-21T12:02:43.942Z,97329.81
2023-04-21T12:05:13.286Z,97313.13
2023-04-21T12:07:52.071Z,97337.81
2023-04-21T12:10:21.013Z,97330.53
2023-04-21T12:12:48.502Z,97321.13
2023-04-21T12:15:20.540Z,97333.09
2023-04-21T12:17:49.731Z,97337.34
2023-04-21T12:20:18.761Z,97332.22
2023-04-21T12:22:46.879Z,97335.84
2023-04-21T12:25:14.298Z,97331.88
2023-04-21T12:27:52.263Z,97345.03
2023-04-21T12:30:20.931Z,97329.66
2023-04-21T12:32:48.474Z,97345.28
2023-04-21T12:35:16.251Z,97343.81
2023-04-21T12:37:44.861Z,97326.31
2023-04-21T12:40:12.230Z,97325.28
2023-04-21T12:42:39.300Z,97325.19
2023-04-21T12:45:07.029Z,97324.75
2023-04-21T12:47:35.382Z,97331.16
2023-04-21T12:50:02.657Z,97310.75
2023-04-21T12:52:29.701Z,97331.69
2023-04-21T12:54:56.708Z,97335.03
2023-04-21T12:57:23.796Z,97330.56
2023-04-21T12:59:50.963Z,97321.00
2023-04-21T13:02:18.132Z,97324.78
2023-04-21T13:04:45.315Z,97328.84
2023-04-21T13:07:12.645Z,97330.16
2023-04-21T13:09:39.724Z,97320.50
2023-04-21T13:12:06.826Z,97330.56
2023-04-21T13:14:34.108Z,97329.31
2023-04-21T13:17:01.322Z,97312.66
2023-04-21T13:19:30.078Z,97328.06
2023-04-21T13:21:57.459Z,97331.13
2023-04-21T13:24:26.143Z,97329.72
2023-04-21T13:26:53.323Z,97329.75
2023-04-21T13:29:20.800Z,97334.69
2023-04-21T13:31:47.942Z,97318.88
2023-04-21T13:34:15.128Z,97320.72
2023-04-21T13:36:42.592Z,97332.81
2023-04-21T13:39:10.374Z,97343.31
2023-04-21T13:41:37.926Z,97343.78
2023-04-21T13:44:05.408Z,97345.63
2023-04-21T13:46:32.693Z,97335.00
2023-04-21T13:48:59.780Z,97342.50
2023-04-21T13:51:26.917Z,97347.09
2023-04-21T13:53:54.136Z,97337.09
2023-04-21T13:56:21.793Z,97348.69
2023-04-21T13:58:48.989Z,97344.16
2023-04-21T14:01:17.194Z,97334.00
2023-04-21T14:03:45.336Z,97348.72
2023-04-21T14:06:12.633Z,97326.66
2023-04-21T14:08:39.847Z,97332.56
2023-04-21T14:11:07.008Z,97339.16
2023-04-21T14:13:41.883Z,97327.78
2023-04-21T14:16:15.307Z,97338.72
2023-04-21T14:18:45.356Z,97349.00
2023-04-21T14:21:12.523Z,97342.97
2023-04-21T14:23:39.770Z,97346.59
2023-04-21T14:26:06.995Z,97351.59
2023-04-21T14:28:34.304Z,97350.41
2023-04-21T14:31:02.095Z,97365.16
2023-04-21T14:33:29.872Z,97360.28
2023-04-21T14:35:57.097Z,97360.28
2023-04-21T14:38:24.700Z,97376.38
2023-04-21T14:40:54.662Z,97374.69
2023-04-21T14:43:22.406Z,97367.66
2023-04-21T14:45:49.752Z,97372.75
2023-04-21T14:48:17.403Z,97379.31
2023-04-21T14:51:16.215Z,97378.75
2023-04-21T14:53:43.426Z,97382.78
2023-04-21T14:56:10.537Z,97372.13
2023-04-21T14:58:37.642Z,97381.75
2023-04-21T15:01:05.288Z,97380.84
2023-04-21T15:03:32.532Z,97389.94
2023-04-21T15:05:59.797Z,97399.53
2023-04-21T15:08:27.810Z,97402.75
2023-04-21T15:10:54.961Z,97397.34
2023-04-21T15:13:22.160Z,97399.78
2023-04-21T15:15:51.674Z,97403.06
2023-04-21T15:18:18.815Z,97388.31
2023-04-21T15:20:46.124Z,97390.75
2023-04-21T15:23:13.594Z,97396.03
2023-04-21T15:25:41.164Z,97390.59
2023-04-21T15:28:08.820Z,97393.84
2023-04-21T15:30:36.048Z,97386.63
2023-04-21T15:33:03.190Z,97380.72
2023-04-21T15:35:30.454Z,97390.09
2023-04-21T15:37:57.660Z,97378.06
2023-04-21T15:40:24.803Z,97373.13
2023-04-21T15:42:52.116Z,97368.69
2023-04-21T15:45:19.226Z,97378.28
2023-04-21T15:47:46.285Z,97379.09
2023-04-21T15:50:13.400Z,97385.47
2023-04-21T15:52:43.445Z,97381.72
2023-04-21T15:55:12.276Z,97381.25
2023-04-21T15:57:39.423Z,97365.44
2023-04-21T16:00:10.473Z,97371.34
2023-04-21T16:02:38.086Z,97379.38
2023-04-21T16:05:06.012Z,97385.69
2023-04-21T16:07:33.336Z,97373.53
2023-04-21T16:10:00.572Z,97378.75
2023-04-21T16:12:27.656Z,97375.94
2023-04-21T16:14:59.430Z,97368.72
2023-04-21T16:17:32.114Z,97379.94
2023-04-21T16:19:59.331Z,97387.53
2023-04-21T16:22:26.574Z,97382.94
2023-04-21T16:24:53.661Z,97381.28
2023-04-21T16:27:21.045Z,97384.91
2023-04-21T16:29:49.195Z,97394.47
2023-04-21T16:32:16.379Z,97393.03
2023-04-21T16:34:43.446Z,97399.59
2023-04-21T16:37:10.784Z,97399.63
2023-04-21T16:39:37.789Z,97401.28
2023-04-21T16:42:04.888Z,97400.78
2023-04-21T16:44:32.156Z,97400.09
2023-04-21T16:46:59.289Z,97404.06
2023-04-21T16:49:26.434Z,97412.59
2023-04-21T16:51:53.460Z,97417.69
2023-04-21T16:54:20.745Z,97409.66
2023-04-21T16:56:47.830Z,97419.00
2023-04-21T16:59:14.876Z,97419.97
2023-04-21T17:01:42.106Z,97419.13
2023-04-21T17:04:14.127Z,97421.75
2023-04-21T17:06:41.613Z,97424.28
2023-04-21T17:09:08.871Z,97425.75
2023-04-21T17:11:38.085Z,97428.19
2023-04-21T17:14:06.631Z,97422.34
2023-04-21T17:16:34.922Z,97425.31
2023-04-21T17:19:02.624Z,97428.91
2023-04-21T17:21:29.734Z,97438.75
2023-04-21T17:23:56.875Z,97441.53
2023-04-21T17:26:24.193Z,97447.31
2023-04-21T17:28:51.635Z,97454.25
2023-04-21T17:31:18.966Z,97451.06
2023-04-21T17:33:46.049Z,97451.09
2023-04-21T17:36:13.447Z,97449.88
2023-04-21T17:38:42.928Z,97457.41
2023-04-21T17:41:10.391Z,97463.44
2023-04-21T17:43:37.428Z,97450.16
2023-04-21T17:46:06.087Z,97461.81
2023-04-21T17:48:33.502Z,97466.34
2023-04-21T17:51:00.613Z,97471.59
2023-04-21T17:53:27.841Z,97472.50
2023-04-21T17:55:55.021Z,97474.59
2023-04-21T17:58:22.335Z,97475.91
2023-04-21T18:00:49.659Z,97473.63
2023-04-21T18:03:17.061Z,97473.41
2023-04-21T18:05:44.740Z,97478.38
2023-04-21T18:08:12.079Z,97479.69
2023-04-21T18:10:39.264Z,97478.38
2023-04-21T18:13:06.802Z,97476.41
2023-04-21T18:15:33.843Z,97476.41
2023-04-21T18:18:00.953Z,97466.47
2023-04-21T18:20:28.167Z,97467.94
2023-04-21T18:22:55.352Z,97466.00
2023-04-21T18:25:38.289Z,97473.25
2023-04-21T18:28:08.348Z,97470.56
2023-04-21T18:30:35.421Z,97470.41
2023-04-21T18:33:02.734Z,97470.34
2023-04-21T18:35:32.021Z,97466.97
2023-04-21T18:37:59.177Z,97476.63
2023-04-21T18:44:16.905Z,97477.31
2023-04-21T18:46:43.961Z,97484.19
2023-04-21T18:49:11.018Z,97482.69
2023-04-21T18:51:38.110Z,97483.75
2023-04-21T18:54:05.481Z,97483.34
2023-04-21T18:56:32.878Z,97480.56
2023-04-21T18:59:00.029Z,97480.28
2023-04-21T19:01:27.875Z,97478.00
2023-04-21T19:03:55.445Z,97477.09
2023-04-21T19:06:22.696Z,97468.53
2023-04-21T19:08:51.329Z,97468.63
2023-04-21T19:11:18.446Z,97463.25
2023-04-21T19:13:45.598Z,97468.38
2023-04-21T19:16:12.890Z,97472.38
2023-04-21T19:18:40.223Z,97472.66
2023-04-21T19:21:10.426Z,97481.75
2023-04-21T19:23:37.453Z,97483.78
2023-04-21T19:26:05.282Z,97480.53
2023-04-21T19:28:32.672Z,97479.78
2023-04-21T19:30:59.665Z,97483.22
2023-04-21T19:33:26.646Z,97488.22
2023-04-21T19:35:53.870Z,97471.72
2023-04-21T19:38:21.102Z,97475.53
2023-04-21T19:40:48.115Z,97483.50
2023-04-21T19:43:15.383Z,97475.81
2023-04-21T19:45:42.632Z,97473.91
2023-04-21T19:48:09.684Z,97476.16
2023-04-21T19:50:37.505Z,97475.59
2023-04-21T19:53:04.629Z,97470.56
2023-04-21T19:55:32.094Z,97486.94
2023-04-21T19:57:59.043Z,97480.31
2023-04-21T20:04:17.002Z,97491.19
2023-04-21T20:06:44.591Z,97492.13
2023-04-21T20:09:11.820Z,97492.03
2023-04-21T20:11:38.863Z,97491.44
2023-04-21T20:14:05.826Z,97500.19
2023-04-21T20:16:33.112Z,97502.13
2023-04-21T20:19:00.517Z,97505.66
2023-04-21T20:21:27.558Z,97498.66
2023-04-21T20:23:54.611Z,97508.50
2023-04-21T20:26:22.645Z,97506.88
2023-04-21T20:28:49.739Z,97501.56
2023-04-21T20:31:19.147Z,97509.44
2023-04-21T20:33:46.359Z,97510.97
2023-04-21T20:36:13.363Z,97514.25
2023-04-21T20:38:40.367Z,97517.97
2023-04-21T20:41:08.946Z,97511.25
2023-04-21T20:43:35.974Z,97519.09
2023-04-21T20:46:03.505Z,97510.66
2023-04-21T20:48:30.735Z,97509.72
2023-04-21T20:50:58.074Z,97513.69
2023-04-21T20:54:35.265Z,97516.94
2023-04-21T20:57:02.688Z,97523.06
2023-04-21T20:59:29.793Z,97524.66
2023-04-21T21:01:56.887Z,97526.13
2023-04-21T21:04:24.114Z,97518.31
2023-04-21T21:06:51.342Z,97523.00
2023-04-21T21:09:19.176Z,97530.50
2023-04-21T21:11:46.645Z,97530.09
2023-04-21T21:14:13.983Z,97519.19
2023-04-21T21:16:41.117Z,97520.56
2023-04-21T21:19:08.317Z,97530.28
2023-04-21T21:21:35.390Z,97530.34
2023-04-21T21:24:02.574Z,97540.56
2023-04-21T21:26:29.754Z,97532.53
2023-04-21T21:30:06.068Z,97545.16
2023-04-21T21:32:33.091Z,97544.53
2023-04-21T21:35:00.298Z,97546.63
2023-04-21T21:37:27.372Z,97541.09
2023-04-21T21:40:02.760Z,97546.19
2023-04-21T21:42:29.802Z,97541.47
2023-04-21T21:44:56.812Z,97546.16
2023-04-21T21:47:23.927Z,97544.50
2023-04-21T21:49:54.996Z,97545.63
2023-04-21T21:52:22.350Z,97548.44
2023-04-21T21:54:49.363Z,97548.34
2023-04-21T21:57:16.970Z,97555.31
2023-04-21T21:59:44.502Z,97560.28
2023-04-21T22:02:11.477Z,97554.03
2023-04-21T22:04:38.623Z,97549.47
2023-04-21T22:07:05.656Z,97556.38
2023-04-21T22:09:32.961Z,97548.94
2023-04-21T22:11:59.992Z,97554.44
2023-04-21T22:14:27.265Z,97549.44
2023-04-21T22:16:54.259Z,97564.31
2023-04-21T22:19:21.304Z,97554.22
2023-04-21T22:21:48.581Z,97558.72
2023-04-21T22:24:15.683Z,97562.38
2023-04-21T22:26:44.100Z,97556.03
2023-04-21T22:29:11.166Z,97553.66
2023-04-21T22:31:38.366Z,97550.88
2023-04-21T22:34:05.560Z,97552.81
2023-04-21T22:36:32.782Z,97561.50
2023-04-21T22:38:59.832Z,97548.16
2023-04-21T22:41:27.738Z,97555.19
2023-04-21T22:43:54.856Z,97549.56
2023-04-21T22:46:21.883Z,97544.63
2023-04-21T22:48:51.286Z,97548.50
2023-04-21T22:51:21.614Z,97551.91
2023-04-21T22:53:48.676Z,97549.13
2023-04-21T22:56:16.127Z,97547.19
2023-04-21T22:58:43.597Z,97556.91
2023-04-21T23:01:10.683Z,97550.16
2023-04-21T23:03:37.873Z,97541.75
2023-04-21T23:06:05.134Z,97552.81
2023-04-21T23:08:32.162Z,97558.16
2023-04-21T23:10:59.482Z,97546.19
2023-04-21T23:13:26.574Z,97543.00
2023-04-21T23:15:53.542Z,97550.56
2023-04-21T23:18:20.625Z,97545.88
2023-04-21T23:20:47.588Z,97552.84
2023-04-21T23:23:14.900Z,97546.50
2023-04-21T23:25:42.004Z,97541.41
2023-04-21T23:28:09.077Z,97544.41
2023-04-21T23:30:36.088Z,97543.97
2023-04-21T23:33:03.475Z,97550.88
2023-04-21T23:35:30.690Z,97552.22
2023-04-21T23:37:57.732Z,97542.19
2023-04-21T23:40:24.787Z,97543.34
2023-04-21T23:42:51.849Z,97542.66
2023-04-21T23:45:19.043Z,97547.75
2023-04-21T23:47:46.263Z,97551.13
2023-04-21T23:50:13.316Z,97546.38
2023-04-21T23:52:42.331Z,97546.47
2023-04-21T23:55:12.382Z,97546.16
2023-04-21T23:57:39.435Z,97550.88
